Lewisetta, Virginia
Current Conditions -  °F | °C
As of 12:53 AM on Sunday 23 Nov 2014 (Local Time) from KNUI Reporting Station
Clear Clear  
Wind Chill: 37°   Ceiling: Unl
Heat Index: 42°   Visibility: 10mi
Dew Point: 20°   Wind: 9mph
Humidity: 41%   Direction: 210°SSW
Pressure: 30.29"   Gusts: NA
Location:  37.9843°N, 76.5087°W
Report Text: KNUI 230553Z AUTO 21008KT 10SM CLR 06/M07 A3029 RMK AO2 SLP256 T00561067 10072 20050 56012
Loading
Personal Weather Stations






























Interactive Weather Map New forecast layout! Learn more

10-Day Weather Forecast

Advertisements
Track Severe Weather on mobile